Time;durP1;ratioP1;P1;durP2;ratioP2;P2;SDS_P1;SDS_P2;PMS_P1;PMS_P2;Temp;Humidity;BMP_temperature;BMP_pressure;BME280_temperature;BME280_humidity;BME280_pressure;Samples;Min_cycle;Max_cycle;Signal;HPM_P1;HPM_P2
2022/04/03 00:02:25;;;;;;;;;;;2.60;99.90;;;;;;5093448;28;20388;-81
2022/04/03 00:04:50;;;;;;;;;;;2.60;99.90;;;;;;5091754;28;19934;-82
2022/04/03 00:07:15;;;;;;;;;;;2.50;99.90;;;;;;5089817;28;19913;-80
2022/04/03 00:09:41;;;;;;;;;;;2.50;99.90;;;;;;5090553;28;19919;-79
2022/04/03 00:12:10;;;;;;;;;;;2.50;99.90;;;;;;5095231;28;19954;-79
2022/04/03 00:14:35;;;;;;;;;;;2.40;99.90;;;;;;5095821;28;20404;-79
2022/04/03 00:17:01;;;;;;;;;;;2.40;99.90;;;;;;5092412;28;19912;-81
2022/04/03 00:19:26;;;;;;;;;;;2.40;99.90;;;;;;5095308;28;20326;-80
2022/04/03 00:21:52;;;;;;;;;;;2.30;99.90;;;;;;5093509;28;19912;-79
2022/04/03 00:24:17;;;;;;;;;;;2.30;99.90;;;;;;5084977;28;19921;-80
2022/04/03 00:26:43;;;;;;;;;;;2.20;99.90;;;;;;5094713;28;19919;-79
2022/04/03 00:29:09;;;;;;;;;;;2.20;99.90;;;;;;5091991;28;20327;-79
2022/04/03 00:31:35;;;;;;;;;;;2.20;99.90;;;;;;5094179;28;19999;-80
2022/04/03 00:34:00;;;;;;;;;;;2.10;99.90;;;;;;5092555;28;20011;-80
2022/04/03 00:36:25;;;;;;;;;;;2.10;99.90;;;;;;5092112;28;19964;-81
2022/04/03 00:38:51;;;;;;;;;;;2.10;99.90;;;;;;5091852;28;20591;-81
2022/04/03 00:41:17;;;;;;;;;;;2.00;99.90;;;;;;5092595;28;19934;-80
2022/04/03 00:43:43;;;;;;;;;;;2.00;99.90;;;;;;5093288;28;20002;-82
2022/04/03 00:46:10;;;;;;;;;;;2.00;99.90;;;;;;5091962;28;20416;-80
2022/04/03 00:48:35;;;;;;;;;;;2.00;99.90;;;;;;5093860;28;20277;-79
2022/04/03 00:51:01;;;;;;;;;;;1.90;99.90;;;;;;5091098;28;19927;-81
2022/04/03 00:53:26;;;;;;;;;;;1.90;99.90;;;;;;5092778;28;19916;-79
2022/04/03 00:55:52;;;;;;;;;;;1.90;99.90;;;;;;5093034;28;19916;-83
2022/04/03 00:58:17;;;;;;;;;;;1.90;99.90;;;;;;5092412;28;19916;-81
2022/04/03 01:00:43;;;;;;;;;;;1.90;99.90;;;;;;5093229;28;19966;-80
2022/04/03 01:03:09;;;;;;;;;;;1.90;99.90;;;;;;5092582;28;19920;-79
2022/04/03 01:05:36;;;;;;;;;;;1.90;99.90;;;;;;5095468;28;19912;-80
2022/04/03 01:08:02;;;;;;;;;;;1.90;99.90;;;;;;5094878;28;19912;-81
2022/04/03 01:10:27;;;;;;;;;;;1.90;99.90;;;;;;5095745;28;19998;-81
2022/04/03 01:12:52;;;;;;;;;;;1.80;99.90;;;;;;5094718;28;20002;-81
2022/04/03 01:15:18;;;;;;;;;;;1.80;99.90;;;;;;5095163;28;20261;-83
2022/04/03 01:17:44;;;;;;;;;;;1.80;99.90;;;;;;5097646;28;20423;-79
2022/04/03 01:20:10;;;;;;;;;;;1.90;99.90;;;;;;5093463;28;19919;-80
2022/04/03 01:22:36;;;;;;;;;;;1.80;99.90;;;;;;5090279;28;20007;-80
2022/04/03 01:25:02;;;;;;;;;;;1.80;99.90;;;;;;5093791;28;20340;-81
2022/04/03 01:27:28;;;;;;;;;;;1.80;99.90;;;;;;5096664;28;19991;-81
2022/04/03 01:29:53;;;;;;;;;;;1.80;99.90;;;;;;5093855;28;19947;-81
2022/04/03 01:32:19;;;;;;;;;;;1.80;99.90;;;;;;5094140;28;19916;-81
2022/04/03 01:34:44;;;;;;;;;;;1.80;99.90;;;;;;5097045;28;19917;-81
2022/04/03 01:37:10;;;;;;;;;;;1.80;99.90;;;;;;5093076;28;20368;-80
2022/04/03 01:39:35;;;;;;;;;;;1.70;99.90;;;;;;5094352;28;19919;-81
2022/04/03 01:42:01;;;;;;;;;;;1.70;99.90;;;;;;5094122;28;19987;-81
2022/04/03 01:44:27;;;;;;;;;;;1.70;99.90;;;;;;5094387;28;19912;-82
2022/04/03 01:46:52;;;;;;;;;;;1.70;99.90;;;;;;5095699;28;19919;-83
2022/04/03 01:49:17;;;;;;;;;;;1.70;99.90;;;;;;5095724;28;19930;-81
2022/04/03 01:51:43;;;;;;;;;;;1.60;99.90;;;;;;5096267;28;19916;-80
2022/04/03 01:54:08;;;;;;;;;;;1.60;99.90;;;;;;5092996;28;19919;-82
2022/04/03 01:56:34;;;;;;;;;;;1.60;99.90;;;;;;5092356;28;20006;-81
2022/04/03 01:59:00;;;;;;;;;;;1.60;99.90;;;;;;5090827;28;19916;-81
2022/04/03 02:01:26;;;;;;;;;;;1.60;99.90;;;;;;5094930;28;19962;-80
2022/04/03 02:03:51;;;;;;;;;;;1.60;99.90;;;;;;5092454;28;19912;-82
2022/04/03 02:06:17;;;;;;;;;;;1.50;99.90;;;;;;5091749;28;19912;-80
2022/04/03 02:08:43;;;;;;;;;;;1.50;99.90;;;;;;5091957;28;20367;-80
2022/04/03 02:11:08;;;;;;;;;;;1.50;99.90;;;;;;5090584;28;19913;-80
2022/04/03 02:13:34;;;;;;;;;;;1.40;99.90;;;;;;5084686;28;19970;-80
2022/04/03 02:15:59;;;;;;;;;;;1.40;99.90;;;;;;5091260;28;20380;-80
2022/04/03 02:18:25;;;;;;;;;;;1.30;99.90;;;;;;5092435;28;19957;-80
2022/04/03 02:20:50;;;;;;;;;;;1.20;99.90;;;;;;5094769;28;19912;-80
2022/04/03 02:23:16;;;;;;;;;;;1.20;99.90;;;;;;5092007;28;19920;-80
2022/04/03 02:25:41;;;;;;;;;;;1.20;99.90;;;;;;5093173;28;20387;-79
2022/04/03 02:28:09;;;;;;;;;;;1.20;99.90;;;;;;5089769;28;19974;-82
2022/04/03 02:30:34;;;;;;;;;;;1.10;99.90;;;;;;5092415;28;19920;-78
2022/04/03 02:33:00;;;;;;;;;;;1.10;99.90;;;;;;5089403;28;19927;-80
2022/04/03 02:35:25;;;;;;;;;;;1.10;99.90;;;;;;5091549;28;19959;-80
2022/04/03 02:37:52;;;;;;;;;;;1.10;99.90;;;;;;5091357;28;20010;-80
2022/04/03 02:40:18;;;;;;;;;;;1.10;99.90;;;;;;5092913;28;20308;-82
2022/04/03 02:42:44;;;;;;;;;;;1.00;99.90;;;;;;5092311;28;19913;-81
2022/04/03 02:45:13;;;;;;;;;;;1.00;99.90;;;;;;5094156;28;20376;-81
2022/04/03 02:47:38;;;;;;;;;;;1.00;99.90;;;;;;5092638;28;19919;-81
2022/04/03 02:50:04;;;;;;;;;;;0.90;99.90;;;;;;5094077;28;20371;-80
2022/04/03 02:52:30;;;;;;;;;;;0.80;99.90;;;;;;5091207;28;19989;-79
2022/04/03 02:54:56;;;;;;;;;;;0.80;99.90;;;;;;5094388;28;19916;-83
2022/04/03 02:57:22;;;;;;;;;;;0.70;99.90;;;;;;5094359;28;19916;-82
2022/04/03 02:59:48;;;;;;;;;;;0.70;99.90;;;;;;5095714;28;19912;-81
2022/04/03 03:02:13;;;;;;;;;;;0.70;99.90;;;;;;5090730;28;20380;-81
2022/04/03 03:04:39;;;;;;;;;;;0.70;99.90;;;;;;5095172;28;19913;-79
2022/04/03 03:07:05;;;;;;;;;;;0.60;99.90;;;;;;5091279;28;19912;-81
2022/04/03 03:09:30;;;;;;;;;;;0.60;99.90;;;;;;5094419;28;19916;-81
2022/04/03 03:11:56;;;;;;;;;;;0.50;99.90;;;;;;5091976;28;19924;-82
2022/04/03 03:14:21;;;;;;;;;;;0.50;99.90;;;;;;5093510;28;19912;-81
2022/04/03 03:16:47;;;;;;;;;;;0.50;99.90;;;;;;5093457;28;19919;-81
2022/04/03 03:19:12;;;;;;;;;;;0.50;99.90;;;;;;5092406;28;20054;-81
2022/04/03 03:21:38;;;;;;;;;;;0.50;99.90;;;;;;5093221;28;19912;-82
2022/04/03 03:24:03;;;;;;;;;;;0.50;99.90;;;;;;5092554;28;19912;-82
2022/04/03 03:26:30;;;;;;;;;;;0.50;99.90;;;;;;5091290;28;19912;-80
2022/04/03 03:28:55;;;;;;;;;;;0.50;99.90;;;;;;5088505;28;19916;-80
2022/04/03 03:31:21;;;;;;;;;;;0.50;99.90;;;;;;5089136;28;19920;-81
2022/04/03 03:33:47;;;;;;;;;;;0.50;99.90;;;;;;5090544;28;19916;-80
2022/04/03 03:36:13;;;;;;;;;;;0.50;99.90;;;;;;5088665;28;19991;-78
2022/04/03 03:38:38;;;;;;;;;;;0.50;99.90;;;;;;5093806;28;19947;-79
2022/04/03 03:41:04;;;;;;;;;;;0.50;99.90;;;;;;5090669;28;19944;-81
2022/04/03 03:43:29;;;;;;;;;;;0.50;99.90;;;;;;5091911;28;19916;-82
2022/04/03 03:45:56;;;;;;;;;;;0.50;99.90;;;;;;5093986;28;19965;-79
2022/04/03 03:48:22;;;;;;;;;;;0.40;99.90;;;;;;5094714;28;19920;-81
2022/04/03 03:50:47;;;;;;;;;;;0.40;99.90;;;;;;5096483;28;20307;-80
2022/04/03 03:53:13;;;;;;;;;;;0.40;99.90;;;;;;5092802;28;20041;-80
2022/04/03 03:55:39;;;;;;;;;;;0.40;99.90;;;;;;5095835;28;19926;-79
2022/04/03 03:58:04;;;;;;;;;;;0.40;99.90;;;;;;5094445;28;19920;-82
2022/04/03 04:00:30;;;;;;;;;;;0.40;99.90;;;;;;5097649;28;20114;-79
2022/04/03 04:02:56;;;;;;;;;;;0.40;99.90;;;;;;5094628;28;19912;-80
2022/04/03 04:05:22;;;;;;;;;;;0.40;99.90;;;;;;5095012;28;19916;-80
2022/04/03 04:07:48;;;;;;;;;;;0.40;99.90;;;;;;5095280;28;20375;-81
2022/04/03 04:10:15;;;;;;;;;;;0.30;99.90;;;;;;5093551;28;20288;-81
2022/04/03 04:12:41;;;;;;;;;;;0.30;99.90;;;;;;5097665;28;19916;-81
2022/04/03 04:15:07;;;;;;;;;;;0.30;99.90;;;;;;5096138;28;20019;-82
2022/04/03 04:17:37;;;;;;;;;;;0.30;99.90;;;;;;5097792;28;19920;-81
2022/04/03 04:20:04;;;;;;;;;;;0.20;99.90;;;;;;5096552;28;19916;-81
2022/04/03 04:22:30;;;;;;;;;;;0.20;99.90;;;;;;5095864;28;20799;-79
2022/04/03 04:24:56;;;;;;;;;;;0.20;99.90;;;;;;5096323;28;19912;-81
2022/04/03 04:27:21;;;;;;;;;;;0.20;99.90;;;;;;5096148;28;19920;-81
2022/04/03 04:29:46;;;;;;;;;;;0.20;99.90;;;;;;5095468;28;20361;-81
2022/04/03 04:32:13;;;;;;;;;;;0.20;99.90;;;;;;5093954;28;19930;-80
2022/04/03 04:34:38;;;;;;;;;;;0.10;99.90;;;;;;5096337;28;19951;-80
2022/04/03 04:37:04;;;;;;;;;;;0.10;99.90;;;;;;5095487;28;20407;-81
2022/04/03 04:39:29;;;;;;;;;;;0.10;99.90;;;;;;5095634;28;20273;-81
2022/04/03 04:41:54;;;;;;;;;;;0.10;99.90;;;;;;5095234;28;19916;-80
2022/04/03 04:44:20;;;;;;;;;;;0.10;99.90;;;;;;5093687;28;19920;-81
2022/04/03 04:46:45;;;;;;;;;;;0.10;99.90;;;;;;5095992;28;19912;-82
2022/04/03 04:49:11;;;;;;;;;;;0.10;99.90;;;;;;5096229;28;19912;-81
2022/04/03 04:51:36;;;;;;;;;;;0.10;99.90;;;;;;5094054;28;19912;-81
2022/04/03 04:54:02;;;;;;;;;;;0.10;99.90;;;;;;5095964;28;20281;-84
2022/04/03 04:56:28;;;;;;;;;;;0.10;99.90;;;;;;5095588;28;19923;-81
2022/04/03 04:58:53;;;;;;;;;;;0.10;99.90;;;;;;5094443;28;19965;-78
2022/04/03 05:01:18;;;;;;;;;;;0.10;99.90;;;;;;5090188;28;19912;-81
2022/04/03 05:03:44;;;;;;;;;;;0.10;99.90;;;;;;5124882;27;20376;-79
2022/04/03 05:06:12;;;;;;;;;;;0.10;99.90;;;;;;5125012;27;20445;-80
2022/04/03 05:08:38;;;;;;;;;;;0.10;99.90;;;;;;5092601;28;20265;-79
2022/04/03 05:11:04;;;;;;;;;;;0.10;99.90;;;;;;5094143;28;19923;-82
2022/04/03 05:13:29;;;;;;;;;;;0.10;99.90;;;;;;5091514;28;20363;-81
2022/04/03 05:15:54;;;;;;;;;;;0.10;99.90;;;;;;5094498;28;19912;-79
2022/04/03 05:18:20;;;;;;;;;;;0.10;99.90;;;;;;5087878;28;20003;-81
2022/04/03 05:20:46;;;;;;;;;;;0.10;99.90;;;;;;5093955;28;20049;-81
2022/04/03 05:23:11;;;;;;;;;;;0.20;99.90;;;;;;5091348;28;19912;-80
2022/04/03 05:25:37;;;;;;;;;;;0.20;99.90;;;;;;5094466;28;19915;-81
2022/04/03 05:28:03;;;;;;;;;;;0.30;99.90;;;;;;5094830;28;19920;-80
2022/04/03 05:30:28;;;;;;;;;;;0.30;99.90;;;;;;5091743;28;19969;-81
2022/04/03 05:32:53;;;;;;;;;;;0.40;99.90;;;;;;5093569;28;19924;-79
2022/04/03 05:35:19;;;;;;;;;;;0.40;99.90;;;;;;5089229;28;19976;-82
2022/04/03 05:37:45;;;;;;;;;;;0.50;99.90;;;;;;5094986;28;20432;-83
2022/04/03 05:40:12;;;;;;;;;;;0.70;99.90;;;;;;5092114;28;20352;-80
2022/04/03 05:42:37;;;;;;;;;;;0.90;99.90;;;;;;5094210;28;19916;-85
2022/04/03 05:45:05;;;;;;;;;;;1.10;99.90;;;;;;5099066;28;20440;-84
2022/04/03 05:47:31;;;;;;;;;;;1.30;99.90;;;;;;5095538;28;19920;-80
2022/04/03 05:49:56;;;;;;;;;;;2.30;99.90;;;;;;5097507;28;19912;-82
2022/04/03 05:52:22;;;;;;;;;;;5.60;99.90;;;;;;5093064;28;19938;-84
2022/04/03 05:54:47;;;;;;;;;;;9.10;99.90;;;;;;5097346;28;19920;-83
2022/04/03 05:57:14;;;;;;;;;;;12.00;99.90;;;;;;5093459;28;19916;-83
2022/04/03 05:59:39;;;;;;;;;;;14.40;99.90;;;;;;5097232;28;20142;-82
2022/04/03 06:02:05;;;;;;;;;;;16.50;99.90;;;;;;5097792;28;19912;-85
2022/04/03 06:04:31;;;;;;;;;;;18.30;99.90;;;;;;5102345;28;19934;-87
2022/04/03 06:06:56;;;;;;;;;;;19.80;99.90;;;;;;5125464;27;19991;-82
2022/04/03 06:09:22;;;;;;;;;;;21.20;99.90;;;;;;5095756;28;19912;-82
2022/04/03 06:11:47;;;;;;;;;;;22.40;99.90;;;;;;5096263;28;20001;-83
2022/04/03 06:14:13;;;;;;;;;;;23.60;99.90;;;;;;5096858;28;19912;-83
2022/04/03 06:16:38;;;;;;;;;;;24.70;99.90;;;;;;5098771;28;19934;-83
2022/04/03 06:19:04;;;;;;;;;;;25.80;99.90;;;;;;5097331;28;20284;-84
2022/04/03 06:21:29;;;;;;;;;;;26.80;99.90;;;;;;5097940;28;20063;-83
2022/04/03 06:23:54;;;;;;;;;;;27.60;99.90;;;;;;5097929;28;19916;-83
2022/04/03 06:26:20;;;;;;;;;;;28.30;99.90;;;;;;5095887;28;20273;-84
2022/04/03 06:28:45;;;;;;;;;;;28.90;99.90;;;;;;5093808;28;20000;-83
2022/04/03 06:31:11;;;;;;;;;;;29.50;99.90;;;;;;5093541;28;19912;-85
2022/04/03 06:33:36;;;;;;;;;;;30.00;99.90;;;;;;5098359;28;19923;-85
2022/04/03 06:36:02;;;;;;;;;;;30.50;99.90;;;;;;5108366;28;20517;-83
2022/04/03 06:38:28;;;;;;;;;;;30.90;99.90;;;;;;5113685;28;19915;-83
2022/04/03 06:40:54;;;;;;;;;;;31.60;99.90;;;;;;5098473;28;19912;-82
2022/04/03 06:43:21;;;;;;;;;;;32.20;99.90;;;;;;5093102;28;19916;-81
2022/04/03 06:45:50;;;;;;;;;;;32.60;99.90;;;;;;5090641;28;19912;-84
2022/04/03 06:48:16;;;;;;;;;;;32.90;99.90;;;;;;5092315;28;19912;-86
2022/04/03 06:50:41;;;;;;;;;;;33.40;99.90;;;;;;5092500;28;19934;-84
2022/04/03 06:53:07;;;;;;;;;;;33.70;99.90;;;;;;5092021;28;20394;-82
2022/04/03 06:55:32;;;;;;;;;;;34.10;99.90;;;;;;5093529;28;19938;-82
2022/04/03 06:57:58;;;;;;;;;;;34.50;99.90;;;;;;5097133;28;19951;-82
2022/04/03 07:00:23;;;;;;;;;;;35.00;99.90;;;;;;5094174;28;19912;-82
2022/04/03 07:02:49;;;;;;;;;;;35.20;99.90;;;;;;5092400;28;19921;-83
2022/04/03 07:05:15;;;;;;;;;;;35.40;99.90;;;;;;5097666;28;19912;-84
2022/04/03 07:07:41;;;;;;;;;;;35.70;99.90;;;;;;5097264;28;19912;-82
2022/04/03 07:10:07;;;;;;;;;;;36.10;99.90;;;;;;5097406;28;19919;-82
2022/04/03 07:12:32;;;;;;;;;;;36.50;99.90;;;;;;5092641;28;19924;-80
2022/04/03 07:14:57;;;;;;;;;;;36.90;99.90;;;;;;5097930;28;19912;-82
2022/04/03 07:17:23;;;;;;;;;;;37.10;99.90;;;;;;5095621;28;19920;-83
2022/04/03 07:19:48;;;;;;;;;;;37.10;99.90;;;;;;5099450;28;20389;-83
2022/04/03 07:22:14;;;;;;;;;;;37.20;99.90;;;;;;5096097;28;19920;-81
2022/04/03 07:24:39;;;;;;;;;;;37.20;99.90;;;;;;5100190;28;19923;-82
2022/04/03 07:27:05;;;;;;;;;;;37.70;99.90;;;;;;5100413;28;19912;-82
2022/04/03 07:29:31;;;;;;;;;;;38.10;99.90;;;;;;5098395;28;20013;-82
2022/04/03 07:31:57;;;;;;;;;;;38.60;99.90;;;;;;5101760;28;19912;-82
2022/04/03 07:34:24;;;;;;;;;;;39.00;99.90;;;;;;5098044;28;19912;-82
2022/04/03 07:36:49;;;;;;;;;;;39.10;99.90;;;;;;5101404;28;20016;-82
2022/04/03 07:39:15;;;;;;;;;;;39.30;99.90;;;;;;5099512;28;19936;-84
2022/04/03 07:41:40;;;;;;;;;;;39.40;99.90;;;;;;5097555;28;20593;-82
2022/04/03 07:44:07;;;;;;;;;;;39.50;99.90;;;;;;5093011;28;20383;-81
2022/04/03 07:46:32;;;;;;;;;;;39.50;99.90;;;;;;5094559;28;20073;-81
2022/04/03 07:48:58;;;;;;;;;;;39.50;99.90;;;;;;5093690;28;20429;-81
2022/04/03 07:51:23;;;;;;;;;;;39.60;99.90;;;;;;5092541;28;19923;-84
2022/04/03 07:53:49;;;;;;;;;;;39.80;99.90;;;;;;5096279;28;19919;-82
2022/04/03 07:56:15;;;;;;;;;;;39.80;99.90;;;;;;5094592;28;19913;-83
2022/04/03 07:58:40;;;;;;;;;;;39.60;99.90;;;;;;5093176;28;19969;-82
2022/04/03 08:01:06;;;;;;;;;;;39.60;99.90;;;;;;5123843;27;19912;-81
2022/04/03 08:03:31;;;;;;;;;;;39.60;99.90;;;;;;5094584;28;20533;-82
2022/04/03 08:05:57;;;;;;;;;;;39.80;99.90;;;;;;5093711;28;19971;-82
2022/04/03 08:08:22;;;;;;;;;;;39.90;99.90;;;;;;5091469;28;19951;-83
2022/04/03 08:10:48;;;;;;;;;;;39.40;99.90;;;;;;5094035;28;20118;-82
2022/04/03 08:13:14;;;;;;;;;;;39.40;99.90;;;;;;5093707;28;20338;-82
2022/04/03 08:15:40;;;;;;;;;;;39.30;99.90;;;;;;5093451;28;19969;-82
2022/04/03 08:18:05;;;;;;;;;;;39.30;99.90;;;;;;5092137;28;20046;-83
2022/04/03 08:20:31;;;;;;;;;;;39.60;99.90;;;;;;5091718;28;19920;-81
2022/04/03 08:22:58;;;;;;;;;;;39.80;99.90;;;;;;5088892;28;19938;-81
2022/04/03 08:25:23;;;;;;;;;;;39.90;99.90;;;;;;5093358;28;20319;-82
2022/04/03 08:27:50;;;;;;;;;;;39.90;99.90;;;;;;5092048;28;19923;-82
2022/04/03 08:30:32;;;;;;;;;;;39.90;99.90;;;;;;5091041;28;20338;-79
2022/04/03 08:32:58;;;;;;;;;;;40.10;99.90;;;;;;5110357;28;19943;-81
2022/04/03 08:35:24;;;;;;;;;;;40.00;99.90;;;;;;5103278;28;19912;-83
2022/04/03 08:37:50;;;;;;;;;;;39.70;99.90;;;;;;5096291;28;19916;-79
2022/04/03 08:40:16;;;;;;;;;;;39.80;99.90;;;;;;5093099;28;19919;-85
2022/04/03 08:42:42;;;;;;;;;;;39.70;99.90;;;;;;5090662;28;19916;-81
2022/04/03 08:45:11;;;;;;;;;;;39.80;99.90;;;;;;5097450;28;19916;-81
2022/04/03 08:47:43;;;;;;;;;;;39.80;99.90;;;;;;5095728;28;21054;-82
2022/04/03 08:50:10;;;;;;;;;;;39.70;99.90;;;;;;5100154;28;19924;-84
2022/04/03 08:52:36;;;;;;;;;;;39.60;99.90;;;;;;5101879;28;19956;-82
2022/04/03 08:55:08;;;;;;;;;;;39.90;99.90;;;;;;5103632;28;20437;-83
2022/04/03 08:57:33;;;;;;;;;;;39.80;99.90;;;;;;5100673;28;20408;-83
2022/04/03 09:00:00;;;;;;;;;;;39.70;99.90;;;;;;5099006;28;19916;-83
2022/04/03 09:02:25;;;;;;;;;;;39.60;99.90;;;;;;5097610;28;19916;-81
2022/04/03 09:04:51;;;;;;;;;;;39.40;99.90;;;;;;5097610;28;19912;-83
2022/04/03 09:07:20;;;;;;;;;;;39.30;99.90;;;;;;5107921;28;19912;-82
2022/04/03 09:09:55;;;;;;;;;;;38.70;99.90;;;;;;5095915;28;19912;-82
2022/04/03 09:12:20;;;;;;;;;;;38.40;99.90;;;;;;5097121;28;20453;-82
2022/04/03 09:14:48;;;;;;;;;;;38.70;99.90;;;;;;5097166;28;19923;-83
2022/04/03 09:17:32;;;;;;;;;;;38.80;99.90;;;;;;5095580;28;19916;-82
2022/04/03 09:20:03;;;;;;;;;;;38.90;99.90;;;;;;5090776;28;19920;-82
2022/04/03 09:22:29;;;;;;;;;;;37.90;99.90;;;;;;5096012;28;19920;-83
2022/04/03 09:24:55;;;;;;;;;;;37.90;99.90;;;;;;5099058;28;19973;-82
2022/04/03 09:27:22;;;;;;;;;;;36.10;99.90;;;;;;5094907;28;19969;-83
2022/04/03 09:30:00;;;;;;;;;;;33.70;99.90;;;;;;5096679;28;19924;-83
2022/04/03 09:32:26;;;;;;;;;;;33.80;99.90;;;;;;5094470;28;19912;-85
2022/04/03 09:34:55;;;;;;;;;;;34.80;99.90;;;;;;5095667;28;20022;-83
2022/04/03 09:37:22;;;;;;;;;;;35.80;99.90;;;;;;5127830;27;19960;-83
2022/04/03 09:39:47;;;;;;;;;;;36.40;99.90;;;;;;5097250;28;20433;-82
2022/04/03 09:42:13;;;;;;;;;;;36.50;99.90;;;;;;5093732;28;19995;-85
2022/04/03 09:44:40;;;;;;;;;;;36.80;99.90;;;;;;5098495;28;19920;-84
2022/04/03 09:47:30;;;;;;;;;;;36.00;99.90;;;;;;5094510;28;19919;-83
2022/04/03 09:49:56;;;;;;;;;;;34.70;99.90;;;;;;5092677;28;20002;-84
2022/04/03 09:52:39;;;;;;;;;;;32.70;99.90;;;;;;5098116;28;19912;-87
2022/04/03 09:55:16;;;;;;;;;;;31.10;99.90;;;;;;5093845;28;19997;-82
2022/04/03 09:57:49;;;;;;;;;;;30.40;99.90;;;;;;5093040;28;19916;-83
2022/04/03 10:00:42;;;;;;;;;;;29.70;99.90;;;;;;5094559;28;20007;-82
2022/04/03 10:03:09;;;;;;;;;;;29.20;99.90;;;;;;5082571;28;19916;-82
2022/04/03 10:05:36;;;;;;;;;;;28.40;99.90;;;;;;5086479;28;19958;-82
2022/04/03 10:08:03;;;;;;;;;;;27.70;99.90;;;;;;5093404;28;19919;-82
2022/04/03 10:10:34;;;;;;;;;;;27.10;99.90;;;;;;5088569;28;19947;-82
2022/04/03 10:12:59;;;;;;;;;;;25.90;99.90;;;;;;5089723;28;19998;-82
2022/04/03 10:15:25;;;;;;;;;;;25.00;99.90;;;;;;5089671;28;19976;-82
2022/04/03 10:17:51;;;;;;;;;;;23.70;99.90;;;;;;5091119;28;20284;-83
2022/04/03 10:20:16;;;;;;;;;;;22.90;99.90;;;;;;5091843;28;20010;-83
2022/04/03 10:22:44;;;;;;;;;;;22.20;99.90;;;;;;5097392;28;19920;-84
2022/04/03 10:25:13;;;;;;;;;;;22.10;99.90;;;;;;5095481;28;20292;-83
2022/04/03 10:27:43;;;;;;;;;;;22.00;99.90;;;;;;5095018;28;19920;-83
2022/04/03 10:30:12;;;;;;;;;;;21.50;99.90;;;;;;5095276;28;19927;-82
2022/04/03 10:32:41;;;;;;;;;;;20.90;99.90;;;;;;5124034;27;19912;-84
2022/04/03 10:35:07;;;;;;;;;;;19.80;99.90;;;;;;5088470;28;19916;-83
2022/04/03 10:37:34;;;;;;;;;;;19.60;99.90;;;;;;5126659;27;19919;-83
2022/04/03 10:40:05;;;;;;;;;;;19.50;99.90;;;;;;5094640;28;19962;-83
2022/04/03 10:42:31;;;;;;;;;;;19.80;99.90;;;;;;5092756;28;19946;-83
2022/04/03 10:45:12;;;;;;;;;;;20.80;99.90;;;;;;5126639;27;20388;-83
2022/04/03 10:47:41;;;;;;;;;;;22.80;99.90;;;;;;5088564;28;19920;-83
2022/04/03 10:50:08;;;;;;;;;;;25.80;99.90;;;;;;5094488;28;19992;-85
2022/04/03 10:52:45;;;;;;;;;;;27.40;99.90;;;;;;5094174;28;19911;-85
2022/04/03 10:55:15;;;;;;;;;;;28.70;99.90;;;;;;5091148;28;19913;-86
2022/04/03 10:57:40;;;;;;;;;;;29.80;99.90;;;;;;5094945;28;20669;-85
2022/04/03 11:00:12;;;;;;;;;;;30.10;99.90;;;;;;5095654;28;20011;-83
2022/04/03 11:03:06;;;;;;;;;;;31.00;99.90;;;;;;5091523;28;19916;-82
2022/04/03 11:05:46;;;;;;;;;;;31.60;99.90;;;;;;5094547;28;20305;-83
2022/04/03 11:08:23;;;;;;;;;;;31.80;99.90;;;;;;5094837;28;19969;-82
2022/04/03 11:10:55;;;;;;;;;;;31.50;99.90;;;;;;5092938;28;19916;-83
2022/04/03 11:13:22;;;;;;;;;;;31.70;99.90;;;;;;5094527;28;19912;-82
2022/04/03 11:15:53;;;;;;;;;;;30.10;99.90;;;;;;5094015;28;19913;-81
2022/04/03 11:21:42;;;;;;;;;;;30.30;99.90;;;;;;5096517;28;20371;-81
2022/04/03 11:24:11;;;;;;;;;;;27.20;99.90;;;;;;5107476;28;19918;-82
2022/04/03 11:26:37;;;;;;;;;;;27.10;99.90;;;;;;5095739;28;19912;-79
2022/04/03 11:29:05;;;;;;;;;;;27.10;99.90;;;;;;5108150;28;20435;-83
2022/04/03 11:31:31;;;;;;;;;;;27.30;99.90;;;;;;5089654;28;20548;-79
2022/04/03 11:33:57;;;;;;;;;;;24.80;99.90;;;;;;5093450;28;19913;-85
2022/04/03 11:36:35;;;;;;;;;;;23.30;99.90;;;;;;5093764;28;19977;-81
2022/04/03 11:39:05;;;;;;;;;;;24.70;99.90;;;;;;5096137;28;20348;-81
2022/04/03 11:41:32;;;;;;;;;;;23.40;99.90;;;;;;5094609;28;20292;-81
2022/04/03 11:44:01;;;;;;;;;;;23.60;99.90;;;;;;5085359;28;20332;-80
2022/04/03 11:46:30;;;;;;;;;;;24.80;99.90;;;;;;5090807;28;19930;-83
2022/04/03 11:48:56;;;;;;;;;;;25.80;99.90;;;;;;5094095;28;20372;-83
2022/04/03 11:51:24;;;;;;;;;;;25.60;99.90;;;;;;5098197;28;19926;-83
2022/04/03 11:53:59;;;;;;;;;;;26.20;99.90;;;;;;5088316;28;20273;-82
2022/04/03 11:56:31;;;;;;;;;;;26.20;99.90;;;;;;5102796;28;20063;-83
2022/04/03 11:58:57;;;;;;;;;;;26.30;99.90;;;;;;5096177;28;20284;-83
2022/04/03 12:01:36;;;;;;;;;;;25.10;99.90;;;;;;5091543;28;19966;-83
2022/04/03 12:04:05;;;;;;;;;;;24.40;99.90;;;;;;5094505;28;19959;-83
2022/04/03 12:06:33;;;;;;;;;;;23.60;99.90;;;;;;5098928;28;19912;-82
2022/04/03 12:09:09;;;;;;;;;;;24.30;99.90;;;;;;5099876;28;20374;-83
2022/04/03 12:11:36;;;;;;;;;;;24.80;99.90;;;;;;5102379;28;19908;-81
2022/04/03 12:14:02;;;;;;;;;;;23.20;99.90;;;;;;5100007;28;19916;-82
2022/04/03 12:16:29;;;;;;;;;;;21.90;99.90;;;;;;5106864;28;19957;-83
2022/04/03 12:18:56;;;;;;;;;;;21.10;99.90;;;;;;5099370;28;19912;-83
2022/04/03 12:21:22;;;;;;;;;;;20.00;99.90;;;;;;5104479;28;20329;-83
2022/04/03 12:24:08;;;;;;;;;;;19.20;99.90;;;;;;5114713;28;19942;-81
2022/04/03 12:26:34;;;;;;;;;;;18.40;99.90;;;;;;5093048;28;20008;-84
2022/04/03 12:29:04;;;;;;;;;;;18.10;99.90;;;;;;5111503;28;19927;-83
2022/04/03 12:31:32;;;;;;;;;;;18.20;99.90;;;;;;5110782;28;19912;-82
2022/04/03 12:34:15;;;;;;;;;;;18.70;99.90;;;;;;5102944;28;20334;-82
2022/04/03 12:36:40;;;;;;;;;;;18.70;99.90;;;;;;5131512;27;19919;-82
2022/04/03 12:39:25;;;;;;;;;;;18.20;99.90;;;;;;5103280;28;19947;-84
2022/04/03 12:41:52;;;;;;;;;;;18.50;99.90;;;;;;5109915;28;19911;-83
2022/04/03 12:44:18;;;;;;;;;;;19.30;99.90;;;;;;5114891;28;19912;-84
2022/04/03 12:46:47;;;;;;;;;;;20.60;99.90;;;;;;5109365;28;19947;-84
2022/04/03 12:49:19;;;;;;;;;;;21.00;99.90;;;;;;5105121;28;19908;-81
2022/04/03 12:51:45;;;;;;;;;;;20.80;99.90;;;;;;5103621;28;20003;-85
2022/04/03 12:54:14;;;;;;;;;;;20.90;99.90;;;;;;5102003;28;19919;-83
2022/04/03 12:59:36;;;;;;;;;;;21.00;99.90;;;;;;5122004;28;20402;-85
2022/04/03 13:02:07;;;;;;;;;;;20.20;99.90;;;;;;5112682;28;19918;-83
2022/04/03 13:04:33;;;;;;;;;;;19.70;99.90;;;;;;5103971;28;19911;-81
2022/04/03 13:06:59;;;;;;;;;;;18.60;99.90;;;;;;5119373;27;19969;-83
2022/04/03 13:09:24;;;;;;;;;;;18.30;99.90;;;;;;5137594;27;19944;-82
2022/04/03 13:11:53;;;;;;;;;;;17.80;99.90;;;;;;5133682;27;19923;-84
2022/04/03 13:14:33;;;;;;;;;;;17.60;99.90;;;;;;5105123;28;20008;-83
2022/04/03 13:17:01;;;;;;;;;;;17.30;99.90;;;;;;5102326;28;20073;-84
2022/04/03 13:19:35;;;;;;;;;;;17.10;99.90;;;;;;5110856;28;19908;-85
2022/04/03 13:22:07;;;;;;;;;;;16.60;99.90;;;;;;5097654;28;20326;-83
2022/04/03 13:24:32;;;;;;;;;;;16.00;99.90;;;;;;5103688;28;19908;-85
2022/04/03 13:27:01;;;;;;;;;;;15.60;99.90;;;;;;5101868;28;19912;-83
2022/04/03 13:29:26;;;;;;;;;;;15.30;99.90;;;;;;5094540;28;19922;-83
2022/04/03 13:31:55;;;;;;;;;;;15.00;99.90;;;;;;5104432;28;19948;-84
2022/04/03 13:34:20;;;;;;;;;;;14.40;99.90;;;;;;5102535;28;19908;-84
2022/04/03 13:36:47;;;;;;;;;;;14.00;99.90;;;;;;5102483;28;19988;-84
2022/04/03 13:39:16;;;;;;;;;;;13.80;99.90;;;;;;5099928;28;19912;-83
2022/04/03 13:41:41;;;;;;;;;;;13.60;99.90;;;;;;5096378;28;19919;-84
2022/04/03 13:44:08;;;;;;;;;;;13.80;99.90;;;;;;5100583;28;19979;-83
2022/04/03 13:46:38;;;;;;;;;;;13.90;99.90;;;;;;5093792;28;19919;-84
2022/04/03 13:49:07;;;;;;;;;;;14.00;99.90;;;;;;5092962;28;19920;-84
2022/04/03 13:51:34;;;;;;;;;;;14.10;99.90;;;;;;5103928;28;19934;-85
2022/04/03 13:54:07;;;;;;;;;;;14.00;99.90;;;;;;5096727;28;19916;-85
2022/04/03 13:56:33;;;;;;;;;;;14.10;99.90;;;;;;5096850;28;19952;-81
2022/04/03 13:59:14;;;;;;;;;;;14.00;99.90;;;;;;5103974;28;20403;-84
2022/04/03 14:01:40;;;;;;;;;;;13.90;99.90;;;;;;5106044;28;19912;-84
2022/04/03 14:04:08;;;;;;;;;;;13.80;99.90;;;;;;5102379;28;20265;-85
2022/04/03 14:06:34;;;;;;;;;;;13.80;99.90;;;;;;5095852;28;19919;-84
2022/04/03 14:08:59;;;;;;;;;;;14.10;99.90;;;;;;5106003;28;19911;-85
2022/04/03 14:11:27;;;;;;;;;;;14.30;99.90;;;;;;5097038;28;19912;-83
2022/04/03 14:13:55;;;;;;;;;;;14.40;99.90;;;;;;5106435;28;19918;-83
2022/04/03 14:16:26;;;;;;;;;;;14.20;99.90;;;;;;5093997;28;20291;-84
2022/04/03 14:18:51;;;;;;;;;;;14.10;99.90;;;;;;5097476;28;20013;-83
2022/04/03 14:21:23;;;;;;;;;;;14.20;99.90;;;;;;5093431;28;20371;-84
2022/04/03 14:23:48;;;;;;;;;;;14.00;99.90;;;;;;5095396;28;20404;-84
2022/04/03 14:26:14;;;;;;;;;;;13.90;99.90;;;;;;5091629;28;19919;-84
2022/04/03 14:28:42;;;;;;;;;;;14.20;99.90;;;;;;5098686;28;20455;-82
2022/04/03 14:31:08;;;;;;;;;;;14.50;99.90;;;;;;5094177;28;19916;-83